createdAt,value
2022-09-18T00:01:33.985Z,14.65
2022-09-18T00:04:01.502Z,14.66
2022-09-18T00:06:29.819Z,14.65
2022-09-18T00:08:58.052Z,14.57
2022-09-18T00:11:25.809Z,14.52
2022-09-18T00:13:52.494Z,14.51
2022-09-18T00:16:20.651Z,14.50
2022-09-18T00:18:48.009Z,14.50
2022-09-18T00:21:16.184Z,14.50
2022-09-18T00:23:43.063Z,14.52
2022-09-18T00:26:10.384Z,14.53
2022-09-18T00:28:36.908Z,14.55
2022-09-18T00:31:07.889Z,14.57
2022-09-18T00:33:35.576Z,14.58
2022-09-18T00:36:02.742Z,14.56
2022-09-18T00:38:29.645Z,14.56
2022-09-18T00:40:56.124Z,14.57
2022-09-18T00:43:24.086Z,14.58
2022-09-18T00:46:05.601Z,14.59
2022-09-18T00:48:40.469Z,14.60
2022-09-18T00:51:06.965Z,14.57
2022-09-18T00:53:35.991Z,14.55
2022-09-18T00:56:03.966Z,14.52
2022-09-18T00:58:30.489Z,14.52
2022-09-18T01:00:57.013Z,14.55
2022-09-18T01:03:23.522Z,14.58
2022-09-18T01:05:52.873Z,14.59
2022-09-18T01:08:31.666Z,14.53
2022-09-18T01:11:17.989Z,14.55
2022-09-18T01:13:58.951Z,14.54
2022-09-18T01:16:28.634Z,14.55
2022-09-18T01:19:01.193Z,14.53
2022-09-18T01:21:38.524Z,14.53
2022-09-18T01:24:07.766Z,14.56
2022-09-18T01:26:34.172Z,14.58
2022-09-18T01:29:05.292Z,14.55
2022-09-18T01:31:34.626Z,14.48
2022-09-18T01:34:03.950Z,14.45
2022-09-18T01:36:34.485Z,14.48
2022-09-18T01:39:12.939Z,14.52
2022-09-18T01:41:42.151Z,14.50
2022-09-18T01:44:13.489Z,14.48
2022-09-18T01:46:43.347Z,14.47
2022-09-18T01:49:16.444Z,14.51
2022-09-18T01:51:54.670Z,14.50
2022-09-18T01:54:27.138Z,14.52
2022-09-18T01:57:04.483Z,14.49
2022-09-18T01:59:41.355Z,14.49
2022-09-18T02:02:33.940Z,14.51
2022-09-18T02:05:02.703Z,14.52
2022-09-18T02:07:45.476Z,14.52
2022-09-18T02:10:12.299Z,14.49
2022-09-18T02:12:42.893Z,14.46
2022-09-18T02:15:11.042Z,14.44
2022-09-18T02:17:49.776Z,14.45
2022-09-18T02:20:20.647Z,14.48
2022-09-18T02:22:48.621Z,14.43
2022-09-18T02:25:17.232Z,14.43
2022-09-18T02:27:43.889Z,14.41
2022-09-18T02:30:10.806Z,14.37
2022-09-18T02:32:39.061Z,14.39
2022-09-18T02:35:07.389Z,14.39
2022-09-18T02:37:57.076Z,14.38
2022-09-18T02:40:31.399Z,14.38
2022-09-18T02:43:00.367Z,14.36
2022-09-18T02:45:49.946Z,14.36
2022-09-18T02:48:35.119Z,14.38
2022-09-18T02:51:07.767Z,14.36
2022-09-18T02:53:41.942Z,14.34
2022-09-18T02:56:14.364Z,14.33
2022-09-18T02:58:50.185Z,14.35
2022-09-18T03:01:17.560Z,14.37
2022-09-18T03:03:44.099Z,14.40
2022-09-18T03:06:12.554Z,14.39
2022-09-18T03:08:39.938Z,14.36
2022-09-18T03:11:06.446Z,14.33
2022-09-18T03:13:33.286Z,14.34
2022-09-18T03:15:59.810Z,14.34
2022-09-18T03:18:26.503Z,14.35
2022-09-18T03:20:55.456Z,14.37
2022-09-18T03:23:23.630Z,14.35
2022-09-18T03:25:52.950Z,14.32
2022-09-18T03:28:19.492Z,14.24
2022-09-18T03:30:46.019Z,14.22
2022-09-18T03:33:13.656Z,14.22
2022-09-18T03:35:42.639Z,14.20
2022-09-18T03:38:09.385Z,14.25
2022-09-18T03:40:36.008Z,14.25
2022-09-18T03:43:05.293Z,14.25
2022-09-18T03:45:31.838Z,14.21
2022-09-18T03:47:59.450Z,14.22
2022-09-18T03:50:27.508Z,14.23
2022-09-18T03:52:53.972Z,14.25
2022-09-18T03:55:43.220Z,14.25
2022-09-18T03:58:28.389Z,14.24
2022-09-18T04:01:18.386Z,14.25
2022-09-18T04:04:07.442Z,14.26
2022-09-18T04:07:08.902Z,14.27
2022-09-18T04:09:58.628Z,14.24
2022-09-18T04:12:25.142Z,14.24
2022-09-18T04:15:11.162Z,14.26
2022-09-18T04:17:37.616Z,14.25
2022-09-18T04:20:05.201Z,14.27
2022-09-18T04:22:31.694Z,14.29
2022-09-18T04:24:58.232Z,14.31
2022-09-18T04:27:24.715Z,14.32
2022-09-18T04:29:51.660Z,14.34
2022-09-18T04:32:19.007Z,14.33
2022-09-18T04:34:46.020Z,14.34
2022-09-18T04:37:12.624Z,14.33
2022-09-18T04:39:39.123Z,14.32
2022-09-18T04:42:05.627Z,14.34
2022-09-18T04:44:32.471Z,14.36
2022-09-18T04:46:59.624Z,14.38
2022-09-18T04:49:26.121Z,14.36
2022-09-18T04:51:52.604Z,14.38
2022-09-18T04:54:19.050Z,14.38
2022-09-18T04:56:45.729Z,14.37
2022-09-18T04:59:12.772Z,14.36
2022-09-18T05:01:43.547Z,14.38
2022-09-18T05:04:11.902Z,14.35
2022-09-18T05:06:50.660Z,14.31
2022-09-18T05:09:18.211Z,14.29
2022-09-18T05:11:44.962Z,14.31
2022-09-18T05:14:11.625Z,14.30
2022-09-18T05:16:40.413Z,14.28
2022-09-18T05:19:27.086Z,14.28
2022-09-18T05:22:00.114Z,14.28
2022-09-18T05:24:26.696Z,14.29
2022-09-18T05:26:53.203Z,14.30
2022-09-18T05:29:21.346Z,14.25
2022-09-18T05:31:49.955Z,14.22
2022-09-18T05:34:16.494Z,14.22
2022-09-18T05:36:43.113Z,14.25
2022-09-18T05:39:12.121Z,14.23
2022-09-18T05:41:41.391Z,14.23
2022-09-18T05:44:07.771Z,14.30
2022-09-18T05:46:34.297Z,14.32
2022-09-18T05:49:02.480Z,14.33
2022-09-18T05:51:28.974Z,14.32
2022-09-18T05:53:56.371Z,14.31
2022-09-18T05:56:33.267Z,14.30
2022-09-18T05:59:00.510Z,14.28
2022-09-18T06:01:29.831Z,14.29
2022-09-18T06:04:28.419Z,14.35
2022-09-18T06:07:01.485Z,14.38
2022-09-18T06:09:28.373Z,14.43
2022-09-18T06:11:54.850Z,14.48
2022-09-18T06:14:22.271Z,14.53
2022-09-18T06:16:48.993Z,14.56
2022-09-18T06:19:16.255Z,14.59
2022-09-18T06:21:45.292Z,14.61
2022-09-18T06:24:15.527Z,14.65
2022-09-18T06:27:04.976Z,14.69
2022-09-18T06:29:31.416Z,14.71
2022-09-18T06:32:13.706Z,14.79
2022-09-18T06:34:40.484Z,14.96
2022-09-18T06:37:10.045Z,15.10
2022-09-18T06:39:56.905Z,15.26
2022-09-18T06:42:45.803Z,15.32
2022-09-18T06:45:27.489Z,15.39
2022-09-18T06:47:55.226Z,15.41
2022-09-18T06:50:24.647Z,15.42
2022-09-18T06:52:51.151Z,15.51
2022-09-18T06:55:18.335Z,15.58
2022-09-18T06:57:55.320Z,15.67
2022-09-18T07:00:22.159Z,15.61
2022-09-18T07:02:57.913Z,15.59
2022-09-18T07:05:53.404Z,15.66
2022-09-18T07:08:34.642Z,15.74
2022-09-18T07:11:11.488Z,15.88
2022-09-18T07:13:38.119Z,15.98
2022-09-18T07:16:05.978Z,16.12
2022-09-18T07:18:32.585Z,16.15
2022-09-18T07:20:59.724Z,16.08
2022-09-18T07:23:38.544Z,15.98
2022-09-18T07:26:05.137Z,15.97
2022-09-18T07:28:33.821Z,15.98
2022-09-18T07:31:09.357Z,15.98
2022-09-18T07:33:37.159Z,16.00
2022-09-18T07:36:04.688Z,16.01
2022-09-18T07:38:34.678Z,16.09
2022-09-18T07:41:02.410Z,16.20
2022-09-18T07:43:30.965Z,16.27
2022-09-18T07:45:58.979Z,16.37
2022-09-18T07:48:27.816Z,16.40
2022-09-18T07:50:58.387Z,16.56
2022-09-18T07:53:25.345Z,16.68
2022-09-18T07:55:55.827Z,16.79
2022-09-18T07:58:24.030Z,16.87
2022-09-18T08:01:16.658Z,17.01
2022-09-18T08:03:55.769Z,17.23
2022-09-18T08:06:34.421Z,17.46
2022-09-18T08:09:21.156Z,17.59
2022-09-18T08:11:58.879Z,17.74
2022-09-18T08:14:37.415Z,17.79
2022-09-18T08:17:23.019Z,17.78
2022-09-18T08:20:15.753Z,17.77
2022-09-18T08:22:44.563Z,17.82
2022-09-18T08:25:12.273Z,18.00
2022-09-18T08:27:42.112Z,18.20
2022-09-18T08:30:09.812Z,18.38
2022-09-18T08:32:39.344Z,18.39
2022-09-18T08:35:07.167Z,18.44
2022-09-18T08:37:34.208Z,18.40
2022-09-18T08:40:21.547Z,18.37
2022-09-18T08:43:09.431Z,18.25
2022-09-18T08:45:45.015Z,18.26
2022-09-18T08:48:15.603Z,18.37
2022-09-18T08:50:46.819Z,18.32
2022-09-18T08:53:16.412Z,18.32
2022-09-18T08:56:22.012Z,18.32
2022-09-18T08:59:19.768Z,18.12
2022-09-18T09:01:51.936Z,17.99
2022-09-18T09:04:23.116Z,18.04
2022-09-18T09:06:49.639Z,17.91
2022-09-18T09:09:22.659Z,18.15
2022-09-18T09:11:58.659Z,18.43
2022-09-18T09:14:52.801Z,18.77
2022-09-18T09:17:24.827Z,19.12
2022-09-18T09:20:02.694Z,19.37
2022-09-18T09:22:53.394Z,19.58
2022-09-18T09:25:23.724Z,19.67
2022-09-18T09:28:23.437Z,19.74
2022-09-18T09:31:01.803Z,19.89
2022-09-18T09:34:01.459Z,20.03
2022-09-18T09:36:49.069Z,19.85
2022-09-18T09:39:20.951Z,19.87
2022-09-18T09:42:03.507Z,20.12
2022-09-18T09:44:38.266Z,20.34
2022-09-18T09:47:19.609Z,20.47
2022-09-18T09:49:52.439Z,20.45
2022-09-18T09:52:24.054Z,20.62
2022-09-18T09:55:21.318Z,20.82
2022-09-18T09:57:50.411Z,20.88
2022-09-18T10:00:19.321Z,20.74
2022-09-18T10:03:04.300Z,20.49
2022-09-18T10:05:43.863Z,20.33
2022-09-18T10:08:29.564Z,20.10
2022-09-18T10:11:01.004Z,19.82
2022-09-18T10:13:40.326Z,19.81
2022-09-18T10:16:11.256Z,19.99
2022-09-18T10:18:40.340Z,20.32
2022-09-18T10:21:14.935Z,20.85
2022-09-18T10:23:42.865Z,21.19
2022-09-18T10:26:15.008Z,22.27
2022-09-18T10:28:41.478Z,22.53
2022-09-18T10:31:12.698Z,21.67
2022-09-18T10:33:46.719Z,20.83
2022-09-18T10:36:23.582Z,20.35
2022-09-18T10:38:50.389Z,19.94
2022-09-18T10:41:26.978Z,19.63
2022-09-18T10:44:05.793Z,19.57
2022-09-18T10:46:34.200Z,19.64
2022-09-18T10:49:22.964Z,19.70
2022-09-18T10:52:09.389Z,19.99
2022-09-18T10:54:36.442Z,20.33
2022-09-18T10:57:25.780Z,20.75
2022-09-18T10:59:53.555Z,21.08
2022-09-18T11:02:21.872Z,21.09
2022-09-18T11:04:49.441Z,21.02
2022-09-18T11:07:22.379Z,20.82
2022-09-18T11:09:52.300Z,20.44
2022-09-18T11:12:24.265Z,20.03
2022-09-18T11:14:58.862Z,19.97
2022-09-18T11:17:27.676Z,19.95
2022-09-18T11:19:56.450Z,19.89
2022-09-18T11:22:33.863Z,19.85
2022-09-18T11:25:21.761Z,19.67
2022-09-18T11:27:52.185Z,19.45
2022-09-18T11:30:22.230Z,19.23
2022-09-18T11:32:52.462Z,19.04
2022-09-18T11:35:21.006Z,18.85
2022-09-18T11:37:58.335Z,18.76
2022-09-18T11:40:29.091Z,18.63
2022-09-18T11:42:55.979Z,18.37
2022-09-18T11:45:23.688Z,18.25
2022-09-18T11:47:57.338Z,18.12
2022-09-18T11:50:26.104Z,18.09
2022-09-18T11:53:00.383Z,18.03
2022-09-18T11:55:32.813Z,18.00
2022-09-18T11:58:02.850Z,17.92
2022-09-18T12:00:33.863Z,17.86
2022-09-18T12:03:08.338Z,17.85
2022-09-18T12:05:38.265Z,17.84
2022-09-18T12:08:08.073Z,17.87
2022-09-18T12:10:38.073Z,18.09
2022-09-18T12:13:13.689Z,18.45
2022-09-18T12:15:42.749Z,18.85
2022-09-18T12:18:13.064Z,19.07
2022-09-18T12:20:44.182Z,19.12
2022-09-18T12:23:22.109Z,19.13
2022-09-18T12:26:09.797Z,19.19
2022-09-18T12:29:08.415Z,19.16
2022-09-18T12:31:45.963Z,19.01
2022-09-18T12:34:21.568Z,18.75
2022-09-18T12:36:47.980Z,18.58
2022-09-18T12:39:38.829Z,18.58
2022-09-18T12:42:14.602Z,18.59
2022-09-18T12:44:47.166Z,18.59
2022-09-18T12:47:21.700Z,18.44
2022-09-18T12:50:01.897Z,18.39
2022-09-18T12:52:31.137Z,18.35
2022-09-18T12:55:16.427Z,18.34
2022-09-18T12:57:45.952Z,18.19
2022-09-18T13:00:16.283Z,18.08
2022-09-18T13:02:50.439Z,18.02
2022-09-18T13:05:26.882Z,18.01
2022-09-18T13:08:19.884Z,18.04
2022-09-18T13:10:47.263Z,18.03
2022-09-18T13:13:22.781Z,18.09
2022-09-18T13:15:52.281Z,18.18
2022-09-18T13:18:26.724Z,18.23
2022-09-18T13:20:54.260Z,18.26
2022-09-18T13:23:23.242Z,18.27
2022-09-18T13:25:51.699Z,18.30
2022-09-18T13:28:19.539Z,18.36
2022-09-18T13:30:46.875Z,18.30
2022-09-18T13:33:24.328Z,18.18
2022-09-18T13:36:00.286Z,18.12
2022-09-18T13:38:30.255Z,18.07
2022-09-18T13:41:00.293Z,18.10
2022-09-18T13:43:31.549Z,18.00
2022-09-18T13:46:06.076Z,18.02
2022-09-18T13:48:33.412Z,18.04
2022-09-18T13:51:04.579Z,18.03
2022-09-18T13:53:33.917Z,18.02
2022-09-18T13:56:00.680Z,18.00
2022-09-18T13:58:36.807Z,18.04
2022-09-18T14:01:04.824Z,18.09
2022-09-18T14:03:35.849Z,18.12
2022-09-18T14:06:21.417Z,18.04
2022-09-18T14:08:47.945Z,18.08
2022-09-18T14:11:22.603Z,18.19
2022-09-18T14:13:53.904Z,18.20
2022-09-18T14:16:20.533Z,18.18
2022-09-18T14:18:47.074Z,18.13
2022-09-18T14:21:18.483Z,18.04
2022-09-18T14:23:46.143Z,17.97
2022-09-18T14:26:37.078Z,17.87
2022-09-18T14:29:03.567Z,17.87
2022-09-18T14:31:36.544Z,17.86
2022-09-18T14:34:05.517Z,17.84
2022-09-18T14:36:42.688Z,17.81
2022-09-18T14:39:29.722Z,17.85
2022-09-18T14:42:01.795Z,17.86
2022-09-18T14:44:29.236Z,17.77
2022-09-18T14:47:00.223Z,17.77
2022-09-18T14:49:28.395Z,17.80
2022-09-18T14:52:03.876Z,17.81
2022-09-18T14:54:31.364Z,17.80
2022-09-18T14:57:01.113Z,17.77
2022-09-18T14:59:29.158Z,17.71
2022-09-18T15:02:31.463Z,17.62
2022-09-18T15:04:59.997Z,17.59
2022-09-18T15:07:26.955Z,17.66
2022-09-18T15:09:55.208Z,17.66
2022-09-18T15:12:23.884Z,17.66
2022-09-18T15:14:50.323Z,17.68
2022-09-18T15:17:18.481Z,17.63
2022-09-18T15:19:55.245Z,17.60
2022-09-18T15:22:22.832Z,17.54
2022-09-18T15:24:49.575Z,17.49
2022-09-18T15:27:16.691Z,17.49
2022-09-18T15:29:46.355Z,17.48
2022-09-18T15:32:19.672Z,17.50
2022-09-18T15:34:48.258Z,17.44
2022-09-18T15:37:19.081Z,17.45
2022-09-18T15:39:47.477Z,17.46
2022-09-18T15:42:26.302Z,17.46
2022-09-18T15:44:55.991Z,17.39
2022-09-18T15:47:25.612Z,17.42
2022-09-18T15:49:53.298Z,17.42
2022-09-18T15:52:38.384Z,17.44
2022-09-18T15:55:11.170Z,17.43
2022-09-18T15:57:37.783Z,17.36
2022-09-18T16:00:06.474Z,17.32
2022-09-18T16:02:39.270Z,17.33
2022-09-18T16:05:09.839Z,17.31
2022-09-18T16:07:39.298Z,17.25
2022-09-18T16:10:32.027Z,17.24
2022-09-18T16:13:00.737Z,17.22
2022-09-18T16:15:27.551Z,17.22
2022-09-18T16:17:56.426Z,17.19
2022-09-18T16:20:29.995Z,17.21
2022-09-18T16:23:13.687Z,17.20
2022-09-18T16:25:42.040Z,17.18
2022-09-18T16:28:25.407Z,17.13
2022-09-18T16:30:52.219Z,17.06
2022-09-18T16:33:29.095Z,17.03
2022-09-18T16:36:03.947Z,16.97
2022-09-18T16:38:30.863Z,16.96
2022-09-18T16:40:58.265Z,16.97
2022-09-18T16:43:25.059Z,16.94
2022-09-18T16:45:51.694Z,16.84
2022-09-18T16:48:18.819Z,16.79
2022-09-18T16:50:45.472Z,16.81
2022-09-18T16:53:11.947Z,16.81
2022-09-18T16:55:40.696Z,16.79
2022-09-18T16:58:07.930Z,16.76
2022-09-18T17:00:36.027Z,16.74
2022-09-18T17:03:02.795Z,16.69
2022-09-18T17:05:29.341Z,16.68
2022-09-18T17:07:55.917Z,16.70
2022-09-18T17:10:22.452Z,16.69
2022-09-18T17:12:48.944Z,16.71
2022-09-18T17:15:15.849Z,16.74
2022-09-18T17:17:42.718Z,16.69
2022-09-18T17:20:09.705Z,16.67
2022-09-18T17:22:36.272Z,16.61
2022-09-18T17:25:02.842Z,16.59
2022-09-18T17:27:29.877Z,16.57
2022-09-18T17:29:56.422Z,16.61
2022-09-18T17:32:23.709Z,16.58
2022-09-18T17:34:50.184Z,16.53
2022-09-18T17:37:16.796Z,16.47
2022-09-18T17:39:43.425Z,16.41
2022-09-18T17:42:10.120Z,16.39
2022-09-18T17:44:37.092Z,16.37
2022-09-18T17:47:03.875Z,16.36
2022-09-18T17:49:31.510Z,16.33
2022-09-18T17:51:58.113Z,16.33
2022-09-18T17:54:24.727Z,16.36
2022-09-18T17:56:51.212Z,16.37
2022-09-18T17:59:18.299Z,16.37
2022-09-18T18:01:47.032Z,16.35
2022-09-18T18:04:13.891Z,16.32
2022-09-18T18:06:40.589Z,16.26
2022-09-18T18:09:09.898Z,16.23
2022-09-18T18:11:37.748Z,16.18
2022-09-18T18:14:05.445Z,16.14
2022-09-18T18:16:33.433Z,16.12
2022-09-18T18:19:01.942Z,16.09
2022-09-18T18:21:29.184Z,16.08
2022-09-18T18:23:56.916Z,16.08
2022-09-18T18:26:23.881Z,16.06
2022-09-18T18:28:50.541Z,16.05
2022-09-18T18:31:17.942Z,16.03
2022-09-18T18:33:45.265Z,16.05
2022-09-18T18:36:18.116Z,16.07
2022-09-18T18:38:45.571Z,16.10
2022-09-18T18:41:12.772Z,16.09
2022-09-18T18:43:42.551Z,16.03
2022-09-18T18:46:12.703Z,16.05
2022-09-18T18:48:40.062Z,16.05
2022-09-18T18:51:08.568Z,16.05
2022-09-18T18:53:38.567Z,16.03
2022-09-18T18:56:10.852Z,16.05
2022-09-18T18:58:37.684Z,16.05
2022-09-18T19:01:08.825Z,16.02
2022-09-18T19:03:39.825Z,16.03
2022-09-18T19:06:06.909Z,16.01
2022-09-18T19:08:35.607Z,16.00
2022-09-18T19:11:03.781Z,16.01
2022-09-18T19:13:30.718Z,16.01
2022-09-18T19:15:57.532Z,16.04
2022-09-18T19:18:24.128Z,15.98
2022-09-18T19:20:53.517Z,15.95
2022-09-18T19:23:20.942Z,15.94
2022-09-18T19:25:48.694Z,15.96
2022-09-18T19:28:16.366Z,15.99
2022-09-18T19:30:43.033Z,16.02
2022-09-18T19:33:16.095Z,16.01
2022-09-18T19:35:42.784Z,15.98
2022-09-18T19:38:09.879Z,15.98
2022-09-18T19:40:38.195Z,15.98
2022-09-18T19:43:12.297Z,16.00
2022-09-18T19:45:39.956Z,16.01
2022-09-18T19:48:08.350Z,16.01
2022-09-18T19:50:39.029Z,15.99
2022-09-18T19:53:06.206Z,15.94
2022-09-18T19:55:34.599Z,15.93
2022-09-18T19:58:01.540Z,15.94
2022-09-18T20:00:28.313Z,15.94
2022-09-18T20:02:57.759Z,15.96
2022-09-18T20:05:27.038Z,15.95
2022-09-18T20:07:53.717Z,15.97
2022-09-18T20:10:20.373Z,15.95
2022-09-18T20:12:47.740Z,15.96
2022-09-18T20:15:14.443Z,15.96
2022-09-18T20:17:41.220Z,15.96
2022-09-18T20:20:08.982Z,15.87
2022-09-18T20:22:40.006Z,15.71
2022-09-18T20:25:08.096Z,15.55
2022-09-18T20:27:39.022Z,15.44
2022-09-18T20:30:07.336Z,15.28
2022-09-18T20:32:34.113Z,15.20
2022-09-18T20:35:00.576Z,15.16
2022-09-18T20:37:32.854Z,15.17
2022-09-18T20:40:01.654Z,15.11
2022-09-18T20:42:33.467Z,15.03
2022-09-18T20:45:04.566Z,15.05
2022-09-18T20:47:34.835Z,15.05
2022-09-18T20:50:06.660Z,15.06
2022-09-18T20:52:37.786Z,14.98
2022-09-18T20:55:08.753Z,14.93
2022-09-18T20:57:39.082Z,14.69
2022-09-18T21:00:07.361Z,14.25
2022-09-18T21:02:35.385Z,13.86
2022-09-18T21:05:03.249Z,13.53
2022-09-18T21:07:31.561Z,13.37
2022-09-18T21:09:58.809Z,13.25
2022-09-18T21:12:25.766Z,13.14
2022-09-18T21:14:52.430Z,13.08
2022-09-18T21:17:18.859Z,13.06
2022-09-18T21:19:48.588Z,13.14
2022-09-18T21:22:16.979Z,13.22
2022-09-18T21:24:44.269Z,13.19
2022-09-18T21:27:10.856Z,13.18
2022-09-18T21:29:40.715Z,13.14
2022-09-18T21:32:08.198Z,13.02
2022-09-18T21:34:34.885Z,12.98
2022-09-18T21:37:02.501Z,13.05
2022-09-18T21:39:29.804Z,13.13
2022-09-18T21:41:57.468Z,13.11
2022-09-18T21:44:27.213Z,13.02
2022-09-18T21:46:55.047Z,13.00
2022-09-18T21:49:22.898Z,12.94
2022-09-18T21:51:50.017Z,12.96
2022-09-18T21:54:18.253Z,13.01
2022-09-18T21:56:48.315Z,13.07
2022-09-18T21:59:14.824Z,13.10
2022-09-18T22:01:42.798Z,13.10
2022-09-18T22:04:10.320Z,13.13
2022-09-18T22:06:44.151Z,13.15
2022-09-18T22:09:15.616Z,13.18
2022-09-18T22:11:42.918Z,13.18
2022-09-18T22:14:11.001Z,13.17
2022-09-18T22:16:38.072Z,13.15
2022-09-18T22:19:06.169Z,13.14
2022-09-18T22:21:34.190Z,13.11
2022-09-18T22:24:06.450Z,13.02
2022-09-18T22:26:37.579Z,12.93
2022-09-18T22:29:08.352Z,12.86
2022-09-18T22:31:35.642Z,12.82
2022-09-18T22:34:02.343Z,12.77
2022-09-18T22:36:29.062Z,12.76
2022-09-18T22:38:55.736Z,12.68
2022-09-18T22:41:22.742Z,12.62
2022-09-18T22:43:53.279Z,12.56
2022-09-18T22:46:19.973Z,12.53
2022-09-18T22:48:46.895Z,12.51
2022-09-18T22:51:14.579Z,12.47
2022-09-18T22:53:45.739Z,12.45
2022-09-18T22:56:13.300Z,12.39
2022-09-18T22:58:41.308Z,12.32
2022-09-18T23:01:12.951Z,12.30
2022-09-18T23:03:39.964Z,12.27
2022-09-18T23:06:07.281Z,12.21
2022-09-18T23:08:34.913Z,12.15
2022-09-18T23:11:02.731Z,12.11
2022-09-18T23:13:29.290Z,12.05
2022-09-18T23:15:55.734Z,12.03
2022-09-18T23:18:22.200Z,12.02
2022-09-18T23:20:48.694Z,12.01
2022-09-18T23:23:15.230Z,12.01
2022-09-18T23:25:41.701Z,11.99
2022-09-18T23:28:08.206Z,11.99
2022-09-18T23:30:36.343Z,11.97
2022-09-18T23:33:02.808Z,11.96
2022-09-18T23:35:29.218Z,11.89
2022-09-18T23:37:56.360Z,11.83
2022-09-18T23:40:22.827Z,11.82
2022-09-18T23:42:49.299Z,11.85
2022-09-18T23:45:15.690Z,11.86
2022-09-18T23:47:42.123Z,11.86
2022-09-18T23:50:08.587Z,11.83
2022-09-18T23:52:35.125Z,11.85
2022-09-18T23:55:01.727Z,11.83
2022-09-18T23:57:28.337Z,11.84
2022-09-18T23:59:58.594Z,11.85
